sensor_id;sensor_type;location;lat;lon;timestamp;P1;P2;P0
76784;PMS7003;66893;44.316;0.092;2023-04-08T00:00:21;7.00;7.00;6.00
76784;PMS7003;66893;44.316;0.092;2023-04-08T00:02:47;7.00;6.75;5.00
76784;PMS7003;66893;44.316;0.092;2023-04-08T00:05:12;5.50;5.25;4.00
76784;PMS7003;66893;44.316;0.092;2023-04-08T00:07:37;7.50;7.50;7.00
76784;PMS7003;66893;44.316;0.092;2023-04-08T00:10:03;9.75;6.00;4.50
76784;PMS7003;66893;44.316;0.092;2023-04-08T00:12:30;9.00;6.75;5.00
76784;PMS7003;66893;44.316;0.092;2023-04-08T00:14:56;9.25;6.00;4.75
76784;PMS7003;66893;44.316;0.092;2023-04-08T00:17:22;6.00;6.00;5.00
76784;PMS7003;66893;44.316;0.092;2023-04-08T00:19:47;11.75;8.00;5.00
76784;PMS7003;66893;44.316;0.092;2023-04-08T00:22:12;8.00;7.00;5.25
76784;PMS7003;66893;44.316;0.092;2023-04-08T00:24:38;5.75;5.25;4.50
76784;PMS7003;66893;44.316;0.092;2023-04-08T00:27:04;5.75;5.75;4.00
76784;PMS7003;66893;44.316;0.092;2023-04-08T00:29:30;6.50;5.00;4.00
76784;PMS7003;66893;44.316;0.092;2023-04-08T00:31:56;8.50;8.25;6.00
76784;PMS7003;66893;44.316;0.092;2023-04-08T00:34:22;7.25;6.75;5.00
76784;PMS7003;66893;44.316;0.092;2023-04-08T00:36:48;6.50;5.25;5.00
76784;PMS7003;66893;44.316;0.092;2023-04-08T00:39:13;8.00;7.00;5.00
76784;PMS7003;66893;44.316;0.092;2023-04-08T00:41:39;6.25;5.00;4.00
76784;PMS7003;66893;44.316;0.092;2023-04-08T00:44:04;9.75;7.50;5.25
76784;PMS7003;66893;44.316;0.092;2023-04-08T00:46:32;8.00;7.50;6.00
76784;PMS7003;66893;44.316;0.092;2023-04-08T00:49:01;4.25;4.25;4.00
76784;PMS7003;66893;44.316;0.092;2023-04-08T00:51:27;8.50;8.50;6.25
76784;PMS7003;66893;44.316;0.092;2023-04-08T00:53:55;8.50;7.25;5.25
76784;PMS7003;66893;44.316;0.092;2023-04-08T00:56:21;8.00;5.25;5.00
76784;PMS7003;66893;44.316;0.092;2023-04-08T00:58:47;7.75;7.25;5.50
76784;PMS7003;66893;44.316;0.092;2023-04-08T01:01:14;7.00;7.00;6.00
76784;PMS7003;66893;44.316;0.092;2023-04-08T01:04:01;6.00;6.00;5.00
76784;PMS7003;66893;44.316;0.092;2023-04-08T01:06:50;11.50;8.75;6.00
76784;PMS7003;66893;44.316;0.092;2023-04-08T01:09:18;8.00;7.75;5.25
76784;PMS7003;66893;44.316;0.092;2023-04-08T01:11:48;8.50;7.00;5.50
76784;PMS7003;66893;44.316;0.092;2023-04-08T01:14:22;10.00;6.25;5.75
76784;PMS7003;66893;44.316;0.092;2023-04-08T01:16:51;9.00;7.25;6.25
76784;PMS7003;66893;44.316;0.092;2023-04-08T01:19:40;8.00;7.50;6.00
76784;PMS7003;66893;44.316;0.092;2023-04-08T01:22:14;5.75;5.75;4.50
76784;PMS7003;66893;44.316;0.092;2023-04-08T01:24:45;5.00;5.00;4.00
76784;PMS7003;66893;44.316;0.092;2023-04-08T01:27:13;8.00;7.50;6.00
76784;PMS7003;66893;44.316;0.092;2023-04-08T01:29:39;8.50;6.75;5.00
76784;PMS7003;66893;44.316;0.092;2023-04-08T01:32:07;6.25;6.00;6.00
76784;PMS7003;66893;44.316;0.092;2023-04-08T01:34:35;5.50;5.50;4.50
76784;PMS7003;66893;44.316;0.092;2023-04-08T01:37:02;8.75;6.50;5.25
76784;PMS7003;66893;44.316;0.092;2023-04-08T01:39:29;7.25;6.00;5.00
76784;PMS7003;66893;44.316;0.092;2023-04-08T01:41:55;5.50;5.50;4.25
76784;PMS7003;66893;44.316;0.092;2023-04-08T01:44:23;8.75;7.25;5.00
76784;PMS7003;66893;44.316;0.092;2023-04-08T01:46:50;7.25;7.25;6.00
76784;PMS7003;66893;44.316;0.092;2023-04-08T01:49:17;7.75;7.75;6.00
76784;PMS7003;66893;44.316;0.092;2023-04-08T01:51:43;7.00;6.25;4.00
76784;PMS7003;66893;44.316;0.092;2023-04-08T01:54:11;4.00;4.00;4.00
76784;PMS7003;66893;44.316;0.092;2023-04-08T01:56:36;5.50;3.00;2.00
76784;PMS7003;66893;44.316;0.092;2023-04-08T01:59:05;7.00;5.25;4.50
76784;PMS7003;66893;44.316;0.092;2023-04-08T02:01:35;5.50;5.00;4.00
76784;PMS7003;66893;44.316;0.092;2023-04-08T02:04:02;3.75;3.00;2.50
76784;PMS7003;66893;44.316;0.092;2023-04-08T02:06:28;3.25;3.25;3.00
76784;PMS7003;66893;44.316;0.092;2023-04-08T02:08:56;3.75;3.50;3.00
76784;PMS7003;66893;44.316;0.092;2023-04-08T02:11:21;5.00;5.00;4.00
76784;PMS7003;66893;44.316;0.092;2023-04-08T02:13:47;4.00;4.00;3.25
76784;PMS7003;66893;44.316;0.092;2023-04-08T02:18:42;4.25;4.25;3.75
76784;PMS7003;66893;44.316;0.092;2023-04-08T02:21:14;4.00;4.00;4.00
76784;PMS7003;66893;44.316;0.092;2023-04-08T02:23:40;4.75;4.00;3.00
76784;PMS7003;66893;44.316;0.092;2023-04-08T02:26:12;4.50;4.50;3.50
76784;PMS7003;66893;44.316;0.092;2023-04-08T02:28:39;4.25;4.25;3.25
76784;PMS7003;66893;44.316;0.092;2023-04-08T02:31:08;8.25;4.00;3.00
76784;PMS7003;66893;44.316;0.092;2023-04-08T02:33:37;4.00;4.00;3.25
76784;PMS7003;66893;44.316;0.092;2023-04-08T02:36:03;4.50;4.00;3.25
76784;PMS7003;66893;44.316;0.092;2023-04-08T02:38:30;3.00;3.00;2.00
76784;PMS7003;66893;44.316;0.092;2023-04-08T02:40:56;5.50;5.50;4.00
76784;PMS7003;66893;44.316;0.092;2023-04-08T02:43:22;2.50;2.50;2.00
76784;PMS7003;66893;44.316;0.092;2023-04-08T02:45:56;2.25;2.25;1.75
76784;PMS7003;66893;44.316;0.092;2023-04-08T02:48:27;3.25;3.00;2.75
76784;PMS7003;66893;44.316;0.092;2023-04-08T02:50:53;2.25;2.25;2.00
76784;PMS7003;66893;44.316;0.092;2023-04-08T02:53:18;3.00;3.00;2.00
76784;PMS7003;66893;44.316;0.092;2023-04-08T02:55:44;3.00;3.00;3.00
76784;PMS7003;66893;44.316;0.092;2023-04-08T02:58:09;3.00;3.00;2.25
76784;PMS7003;66893;44.316;0.092;2023-04-08T03:00:34;5.00;5.00;3.00
76784;PMS7003;66893;44.316;0.092;2023-04-08T03:03:01;4.50;4.50;3.50
76784;PMS7003;66893;44.316;0.092;2023-04-08T03:05:26;4.50;3.00;3.00
76784;PMS7003;66893;44.316;0.092;2023-04-08T03:07:52;3.75;3.75;3.00
76784;PMS7003;66893;44.316;0.092;2023-04-08T03:10:17;7.00;3.00;2.50
76784;PMS7003;66893;44.316;0.092;2023-04-08T03:12:44;3.00;3.00;2.50
76784;PMS7003;66893;44.316;0.092;2023-04-08T03:15:10;3.50;3.50;3.00
76784;PMS7003;66893;44.316;0.092;2023-04-08T03:17:35;3.50;3.00;3.00
76784;PMS7003;66893;44.316;0.092;2023-04-08T03:20:01;3.00;3.00;2.25
76784;PMS7003;66893;44.316;0.092;2023-04-08T03:22:28;3.00;3.00;3.00
76784;PMS7003;66893;44.316;0.092;2023-04-08T03:24:54;4.75;3.00;2.50
76784;PMS7003;66893;44.316;0.092;2023-04-08T03:27:19;3.75;3.75;3.00
76784;PMS7003;66893;44.316;0.092;2023-04-08T03:29:45;3.50;3.50;3.00
76784;PMS7003;66893;44.316;0.092;2023-04-08T03:32:10;5.50;3.00;2.00
76784;PMS7003;66893;44.316;0.092;2023-04-08T03:34:36;7.00;5.00;3.00
76784;PMS7003;66893;44.316;0.092;2023-04-08T03:37:02;3.00;2.00;2.00
76784;PMS7003;66893;44.316;0.092;2023-04-08T03:39:27;4.75;4.75;3.00
76784;PMS7003;66893;44.316;0.092;2023-04-08T03:41:52;3.75;3.50;3.00
76784;PMS7003;66893;44.316;0.092;2023-04-08T03:44:18;2.00;2.00;2.00
76784;PMS7003;66893;44.316;0.092;2023-04-08T03:46:43;2.00;2.00;2.00
76784;PMS7003;66893;44.316;0.092;2023-04-08T03:49:09;4.25;3.50;3.00
76784;PMS7003;66893;44.316;0.092;2023-04-08T03:51:34;3.75;3.25;2.25
76784;PMS7003;66893;44.316;0.092;2023-04-08T03:54:00;4.25;4.25;3.50
76784;PMS7003;66893;44.316;0.092;2023-04-08T03:56:25;5.25;4.00;3.50
76784;PMS7003;66893;44.316;0.092;2023-04-08T03:58:51;4.25;3.75;2.75
76784;PMS7003;66893;44.316;0.092;2023-04-08T04:01:16;3.25;3.25;2.50
76784;PMS7003;66893;44.316;0.092;2023-04-08T04:03:41;4.25;3.75;3.50
76784;PMS7003;66893;44.316;0.092;2023-04-08T04:06:07;8.75;4.00;3.00
76784;PMS7003;66893;44.316;0.092;2023-04-08T04:08:32;3.50;3.50;3.00
76784;PMS7003;66893;44.316;0.092;2023-04-08T04:10:58;3.00;3.00;3.00
76784;PMS7003;66893;44.316;0.092;2023-04-08T04:13:24;3.00;3.00;2.00
76784;PMS7003;66893;44.316;0.092;2023-04-08T04:15:49;3.75;3.75;2.25
76784;PMS7003;66893;44.316;0.092;2023-04-08T04:18:15;3.00;2.75;2.50
76784;PMS7003;66893;44.316;0.092;2023-04-08T04:20:41;2.75;2.75;2.00
76784;PMS7003;66893;44.316;0.092;2023-04-08T04:23:07;4.25;3.75;2.75
76784;PMS7003;66893;44.316;0.092;2023-04-08T04:25:32;4.00;4.00;3.50
76784;PMS7003;66893;44.316;0.092;2023-04-08T04:27:58;4.75;4.00;4.00
76784;PMS7003;66893;44.316;0.092;2023-04-08T04:30:23;4.00;4.00;3.00
76784;PMS7003;66893;44.316;0.092;2023-04-08T04:32:49;4.50;4.50;3.50
76784;PMS7003;66893;44.316;0.092;2023-04-08T04:35:15;5.00;3.25;3.00
76784;PMS7003;66893;44.316;0.092;2023-04-08T04:37:40;4.00;4.00;3.25
76784;PMS7003;66893;44.316;0.092;2023-04-08T04:40:06;4.00;4.00;3.00
76784;PMS7003;66893;44.316;0.092;2023-04-08T04:42:32;5.00;4.00;3.00
76784;PMS7003;66893;44.316;0.092;2023-04-08T04:44:57;4.25;4.25;3.00
76784;PMS7003;66893;44.316;0.092;2023-04-08T04:47:23;4.00;2.50;2.00
76784;PMS7003;66893;44.316;0.092;2023-04-08T04:49:49;4.75;2.75;2.75
76784;PMS7003;66893;44.316;0.092;2023-04-08T04:52:15;7.00;4.00;3.75
76784;PMS7003;66893;44.316;0.092;2023-04-08T04:54:41;5.50;5.00;4.00
76784;PMS7003;66893;44.316;0.092;2023-04-08T04:57:07;4.00;4.00;3.25
76784;PMS7003;66893;44.316;0.092;2023-04-08T04:59:33;5.75;5.00;3.00
76784;PMS7003;66893;44.316;0.092;2023-04-08T05:01:58;7.75;7.75;4.50
76784;PMS7003;66893;44.316;0.092;2023-04-08T05:04:24;5.25;4.75;3.75
76784;PMS7003;66893;44.316;0.092;2023-04-08T05:06:50;3.75;3.25;3.00
76784;PMS7003;66893;44.316;0.092;2023-04-08T05:09:15;6.50;6.25;4.75
76784;PMS7003;66893;44.316;0.092;2023-04-08T05:11:41;6.25;4.75;4.00
76784;PMS7003;66893;44.316;0.092;2023-04-08T05:14:06;5.50;4.25;4.00
76784;PMS7003;66893;44.316;0.092;2023-04-08T05:16:32;8.25;8.00;5.25
76784;PMS7003;66893;44.316;0.092;2023-04-08T05:18:58;8.00;6.50;5.00
76784;PMS7003;66893;44.316;0.092;2023-04-08T05:21:24;7.00;6.75;4.75
76784;PMS7003;66893;44.316;0.092;2023-04-08T05:23:50;11.50;9.75;6.50
76784;PMS7003;66893;44.316;0.092;2023-04-08T05:26:17;13.00;10.25;7.75
76784;PMS7003;66893;44.316;0.092;2023-04-08T05:28:44;12.00;11.75;8.50
76784;PMS7003;66893;44.316;0.092;2023-04-08T05:31:09;12.25;8.75;7.50
76784;PMS7003;66893;44.316;0.092;2023-04-08T05:33:35;12.75;10.75;8.25
76784;PMS7003;66893;44.316;0.092;2023-04-08T05:36:01;13.00;11.75;8.50
76784;PMS7003;66893;44.316;0.092;2023-04-08T05:38:27;15.75;14.00;9.75
76784;PMS7003;66893;44.316;0.092;2023-04-08T05:40:52;16.00;12.75;9.50
76784;PMS7003;66893;44.316;0.092;2023-04-08T05:43:17;14.00;12.50;7.75
76784;PMS7003;66893;44.316;0.092;2023-04-08T05:45:43;12.00;9.50;6.75
76784;PMS7003;66893;44.316;0.092;2023-04-08T05:48:08;13.75;12.75;9.75
76784;PMS7003;66893;44.316;0.092;2023-04-08T05:50:34;15.50;15.50;10.00
76784;PMS7003;66893;44.316;0.092;2023-04-08T05:53:00;10.75;10.25;8.00
76784;PMS7003;66893;44.316;0.092;2023-04-08T05:55:26;14.25;12.75;8.50
76784;PMS7003;66893;44.316;0.092;2023-04-08T05:57:51;10.25;9.25;7.50
76784;PMS7003;66893;44.316;0.092;2023-04-08T06:00:16;12.25;9.25;7.50
76784;PMS7003;66893;44.316;0.092;2023-04-08T06:02:42;9.25;9.25;8.00
76784;PMS7003;66893;44.316;0.092;2023-04-08T06:05:08;11.75;9.50;7.00
76784;PMS7003;66893;44.316;0.092;2023-04-08T06:07:33;9.00;8.25;7.00
76784;PMS7003;66893;44.316;0.092;2023-04-08T06:09:59;9.50;9.50;8.50
76784;PMS7003;66893;44.316;0.092;2023-04-08T06:12:24;8.00;8.00;7.25
76784;PMS7003;66893;44.316;0.092;2023-04-08T06:14:53;6.50;6.50;5.50
76784;PMS7003;66893;44.316;0.092;2023-04-08T06:17:20;8.25;6.00;5.25
76784;PMS7003;66893;44.316;0.092;2023-04-08T06:19:45;8.00;7.50;6.00
76784;PMS7003;66893;44.316;0.092;2023-04-08T06:22:10;7.50;7.50;5.00
76784;PMS7003;66893;44.316;0.092;2023-04-08T06:24:36;10.25;10.25;6.50
76784;PMS7003;66893;44.316;0.092;2023-04-08T06:27:01;11.25;11.25;9.75
76784;PMS7003;66893;44.316;0.092;2023-04-08T06:29:27;16.25;15.00;12.50
76784;PMS7003;66893;44.316;0.092;2023-04-08T06:31:54;12.75;12.75;10.50
76784;PMS7003;66893;44.316;0.092;2023-04-08T06:34:20;12.50;12.50;11.25
76784;PMS7003;66893;44.316;0.092;2023-04-08T06:36:45;12.25;11.75;9.00
76784;PMS7003;66893;44.316;0.092;2023-04-08T06:39:12;15.00;12.50;10.25
76784;PMS7003;66893;44.316;0.092;2023-04-08T06:41:39;13.00;13.00;10.25
76784;PMS7003;66893;44.316;0.092;2023-04-08T06:44:04;5.75;5.50;5.00
76784;PMS7003;66893;44.316;0.092;2023-04-08T06:46:30;10.50;9.00;7.25
76784;PMS7003;66893;44.316;0.092;2023-04-08T06:48:55;8.50;6.75;5.75
76784;PMS7003;66893;44.316;0.092;2023-04-08T06:51:21;7.25;6.50;6.00
76784;PMS7003;66893;44.316;0.092;2023-04-08T06:53:46;10.75;7.50;5.00
76784;PMS7003;66893;44.316;0.092;2023-04-08T06:56:12;6.25;6.25;4.50
76784;PMS7003;66893;44.316;0.092;2023-04-08T06:58:37;7.75;7.00;5.75
76784;PMS7003;66893;44.316;0.092;2023-04-08T07:01:03;6.50;6.25;4.00
76784;PMS7003;66893;44.316;0.092;2023-04-08T07:03:28;5.75;5.75;5.00
76784;PMS7003;66893;44.316;0.092;2023-04-08T07:05:54;6.00;6.00;4.50
76784;PMS7003;66893;44.316;0.092;2023-04-08T07:08:20;7.00;7.00;5.00
76784;PMS7003;66893;44.316;0.092;2023-04-08T07:10:45;4.00;2.75;2.75
76784;PMS7003;66893;44.316;0.092;2023-04-08T07:13:11;6.50;6.50;5.00
76784;PMS7003;66893;44.316;0.092;2023-04-08T07:15:37;5.25;5.25;4.00
76784;PMS7003;66893;44.316;0.092;2023-04-08T07:18:02;4.25;4.25;3.75
76784;PMS7003;66893;44.316;0.092;2023-04-08T07:20:28;3.75;3.75;1.75
76784;PMS7003;66893;44.316;0.092;2023-04-08T07:22:54;3.25;3.25;2.50
76784;PMS7003;66893;44.316;0.092;2023-04-08T07:25:20;5.25;2.75;2.75
76784;PMS7003;66893;44.316;0.092;2023-04-08T07:27:45;3.00;3.00;2.75
76784;PMS7003;66893;44.316;0.092;2023-04-08T07:30:11;4.25;4.25;3.75
76784;PMS7003;66893;44.316;0.092;2023-04-08T07:32:36;3.00;3.00;2.75
76784;PMS7003;66893;44.316;0.092;2023-04-08T07:35:02;3.75;3.75;3.50
76784;PMS7003;66893;44.316;0.092;2023-04-08T07:37:28;3.50;2.50;2.00
76784;PMS7003;66893;44.316;0.092;2023-04-08T07:39:53;4.00;3.00;3.00
76784;PMS7003;66893;44.316;0.092;2023-04-08T07:42:19;3.25;3.25;2.75
76784;PMS7003;66893;44.316;0.092;2023-04-08T07:44:45;2.00;2.00;1.75
76784;PMS7003;66893;44.316;0.092;2023-04-08T07:47:10;3.00;3.00;2.50
76784;PMS7003;66893;44.316;0.092;2023-04-08T07:49:36;3.50;3.50;2.00
76784;PMS7003;66893;44.316;0.092;2023-04-08T07:52:03;4.00;2.50;1.50
76784;PMS7003;66893;44.316;0.092;2023-04-08T07:54:29;2.25;2.25;2.00
76784;PMS7003;66893;44.316;0.092;2023-04-08T07:56:55;2.50;1.75;1.25
76784;PMS7003;66893;44.316;0.092;2023-04-08T07:59:21;2.25;2.25;2.00
76784;PMS7003;66893;44.316;0.092;2023-04-08T08:01:46;2.75;2.00;1.25
76784;PMS7003;66893;44.316;0.092;2023-04-08T08:04:12;1.00;1.00;1.00
76784;PMS7003;66893;44.316;0.092;2023-04-08T08:06:37;1.50;1.50;1.00
76784;PMS7003;66893;44.316;0.092;2023-04-08T08:09:03;2.50;2.50;1.75
76784;PMS7003;66893;44.316;0.092;2023-04-08T08:11:29;2.00;2.00;2.00
76784;PMS7003;66893;44.316;0.092;2023-04-08T08:13:54;2.00;1.50;1.00
76784;PMS7003;66893;44.316;0.092;2023-04-08T08:16:20;3.00;1.25;1.00
76784;PMS7003;66893;44.316;0.092;2023-04-08T08:18:46;3.50;1.25;1.00
76784;PMS7003;66893;44.316;0.092;2023-04-08T08:21:11;1.00;1.00;1.00
76784;PMS7003;66893;44.316;0.092;2023-04-08T08:23:37;3.00;2.00;2.00
76784;PMS7003;66893;44.316;0.092;2023-04-08T08:26:06;2.00;2.00;2.00
76784;PMS7003;66893;44.316;0.092;2023-04-08T08:28:36;1.00;1.00;1.00
76784;PMS7003;66893;44.316;0.092;2023-04-08T08:31:02;1.75;1.75;1.00
76784;PMS7003;66893;44.316;0.092;2023-04-08T08:33:28;2.00;2.00;2.00
76784;PMS7003;66893;44.316;0.092;2023-04-08T08:35:53;1.00;1.00;1.00
76784;PMS7003;66893;44.316;0.092;2023-04-08T08:38:20;2.00;2.00;2.00
76784;PMS7003;66893;44.316;0.092;2023-04-08T08:40:45;1.00;1.00;1.00
76784;PMS7003;66893;44.316;0.092;2023-04-08T08:43:11;4.25;1.00;1.00
76784;PMS7003;66893;44.316;0.092;2023-04-08T08:45:42;2.25;2.25;1.50
76784;PMS7003;66893;44.316;0.092;2023-04-08T08:48:08;2.25;2.00;1.50
76784;PMS7003;66893;44.316;0.092;2023-04-08T08:50:34;2.00;2.00;1.75
76784;PMS7003;66893;44.316;0.092;2023-04-08T08:52:59;2.00;2.00;1.75
76784;PMS7003;66893;44.316;0.092;2023-04-08T08:55:28;2.00;2.00;2.00
76784;PMS7003;66893;44.316;0.092;2023-04-08T08:57:56;1.00;1.00;1.00
76784;PMS7003;66893;44.316;0.092;2023-04-08T09:00:31;3.50;2.00;2.00
76784;PMS7003;66893;44.316;0.092;2023-04-08T09:03:12;1.00;1.00;1.00
76784;PMS7003;66893;44.316;0.092;2023-04-08T09:08:31;1.00;1.00;1.00
76784;PMS7003;66893;44.316;0.092;2023-04-08T09:13:43;2.00;0.00;0.00
76784;PMS7003;66893;44.316;0.092;2023-04-08T09:16:10;4.75;1.75;1.00
76784;PMS7003;66893;44.316;0.092;2023-04-08T09:18:38;1.50;1.50;1.00
76784;PMS7003;66893;44.316;0.092;2023-04-08T09:21:05;4.50;1.00;1.00
76784;PMS7003;66893;44.316;0.092;2023-04-08T09:23:41;3.75;2.00;1.00
76784;PMS7003;66893;44.316;0.092;2023-04-08T09:26:16;4.25;2.75;2.25
76784;PMS7003;66893;44.316;0.092;2023-04-08T09:28:44;2.00;2.00;2.00
76784;PMS7003;66893;44.316;0.092;2023-04-08T09:31:23;2.00;2.00;1.50
76784;PMS7003;66893;44.316;0.092;2023-04-08T09:33:52;2.50;1.00;0.75
76784;PMS7003;66893;44.316;0.092;2023-04-08T09:36:19;3.00;1.00;0.00
76784;PMS7003;66893;44.316;0.092;2023-04-08T09:38:45;1.50;1.50;1.00
76784;PMS7003;66893;44.316;0.092;2023-04-08T09:41:17;3.00;3.00;2.25
76784;PMS7003;66893;44.316;0.092;2023-04-08T09:43:52;4.50;3.25;3.00
76784;PMS7003;66893;44.316;0.092;2023-04-08T09:46:26;3.00;3.00;3.00
76784;PMS7003;66893;44.316;0.092;2023-04-08T09:49:04;6.00;4.00;3.00
76784;PMS7003;66893;44.316;0.092;2023-04-08T09:51:39;4.50;4.25;3.00
76784;PMS7003;66893;44.316;0.092;2023-04-08T09:54:13;5.50;3.50;2.50
76784;PMS7003;66893;44.316;0.092;2023-04-08T09:56:57;4.50;4.25;3.25
76784;PMS7003;66893;44.316;0.092;2023-04-08T09:59:29;4.00;3.00;3.00
76784;PMS7003;66893;44.316;0.092;2023-04-08T10:01:59;5.00;5.00;4.00
76784;PMS7003;66893;44.316;0.092;2023-04-08T10:04:28;6.00;5.00;3.50
76784;PMS7003;66893;44.316;0.092;2023-04-08T10:06:57;4.25;3.50;3.00
76784;PMS7003;66893;44.316;0.092;2023-04-08T10:09:28;4.00;3.00;2.00
76784;PMS7003;66893;44.316;0.092;2023-04-08T10:11:54;3.25;3.25;3.00
76784;PMS7003;66893;44.316;0.092;2023-04-08T10:14:19;3.00;3.00;3.00
76784;PMS7003;66893;44.316;0.092;2023-04-08T10:16:46;4.75;4.75;4.00
76784;PMS7003;66893;44.316;0.092;2023-04-08T10:22:10;3.75;3.50;2.50
76784;PMS7003;66893;44.316;0.092;2023-04-08T10:27:39;5.25;5.00;3.25
76784;PMS7003;66893;44.316;0.092;2023-04-08T10:30:26;3.25;3.00;3.00
76784;PMS7003;66893;44.316;0.092;2023-04-08T10:32:58;4.00;4.00;3.00
76784;PMS7003;66893;44.316;0.092;2023-04-08T10:35:31;1.25;1.25;1.00
76784;PMS7003;66893;44.316;0.092;2023-04-08T10:37:58;4.00;4.00;4.00
76784;PMS7003;66893;44.316;0.092;2023-04-08T10:40:25;4.25;2.25;2.00
76784;PMS7003;66893;44.316;0.092;2023-04-08T10:42:54;3.00;3.00;2.00
76784;PMS7003;66893;44.316;0.092;2023-04-08T10:45:20;2.75;2.00;1.75
76784;PMS7003;66893;44.316;0.092;2023-04-08T10:47:46;2.00;2.00;2.00
76784;PMS7003;66893;44.316;0.092;2023-04-08T10:50:15;2.00;1.00;1.00
76784;PMS7003;66893;44.316;0.092;2023-04-08T10:52:48;2.25;2.25;2.00
76784;PMS7003;66893;44.316;0.092;2023-04-08T10:55:24;10.25;6.00;3.00
76784;PMS7003;66893;44.316;0.092;2023-04-08T10:57:51;3.00;2.00;1.00
76784;PMS7003;66893;44.316;0.092;2023-04-08T11:00:31;2.00;2.00;2.00
76784;PMS7003;66893;44.316;0.092;2023-04-08T11:03:04;3.00;1.75;1.25
76784;PMS7003;66893;44.316;0.092;2023-04-08T11:05:31;2.50;2.00;1.00
76784;PMS7003;66893;44.316;0.092;2023-04-08T11:07:58;2.25;2.25;2.00
76784;PMS7003;66893;44.316;0.092;2023-04-08T11:10:24;4.25;2.75;2.25
76784;PMS7003;66893;44.316;0.092;2023-04-08T11:12:51;1.75;1.75;1.25
76784;PMS7003;66893;44.316;0.092;2023-04-08T11:15:18;4.50;1.00;1.00
76784;PMS7003;66893;44.316;0.092;2023-04-08T11:17:44;2.50;2.00;2.00
76784;PMS7003;66893;44.316;0.092;2023-04-08T11:20:11;2.00;2.00;1.25
76784;PMS7003;66893;44.316;0.092;2023-04-08T11:22:38;1.00;1.00;1.00
76784;PMS7003;66893;44.316;0.092;2023-04-08T11:25:04;2.00;1.25;1.00
76784;PMS7003;66893;44.316;0.092;2023-04-08T11:27:32;1.75;1.75;1.00
76784;PMS7003;66893;44.316;0.092;2023-04-08T11:30:00;2.00;1.75;1.00
76784;PMS7003;66893;44.316;0.092;2023-04-08T11:32:26;2.50;1.25;1.00
76784;PMS7003;66893;44.316;0.092;2023-04-08T11:34:53;3.00;2.00;1.00
76784;PMS7003;66893;44.316;0.092;2023-04-08T11:37:18;1.50;1.50;1.25
76784;PMS7003;66893;44.316;0.092;2023-04-08T11:39:44;3.00;2.00;2.00
76784;PMS7003;66893;44.316;0.092;2023-04-08T11:42:26;0.75;0.75;0.00
76784;PMS7003;66893;44.316;0.092;2023-04-08T11:44:52;1.50;0.75;0.25
76784;PMS7003;66893;44.316;0.092;2023-04-08T11:47:18;1.50;1.00;1.00
76784;PMS7003;66893;44.316;0.092;2023-04-08T11:49:44;0.50;0.50;0.50
76784;PMS7003;66893;44.316;0.092;2023-04-08T11:52:10;2.25;1.00;1.00
76784;PMS7003;66893;44.316;0.092;2023-04-08T11:54:39;1.00;1.00;1.00
76784;PMS7003;66893;44.316;0.092;2023-04-08T11:57:05;1.00;1.00;1.00
76784;PMS7003;66893;44.316;0.092;2023-04-08T11:59:33;2.25;1.00;1.00
76784;PMS7003;66893;44.316;0.092;2023-04-08T12:02:02;1.00;1.00;1.00
76784;PMS7003;66893;44.316;0.092;2023-04-08T12:04:28;0.25;0.25;0.00
76784;PMS7003;66893;44.316;0.092;2023-04-08T12:06:54;2.50;1.00;1.00
76784;PMS7003;66893;44.316;0.092;2023-04-08T12:09:20;2.00;1.75;1.00
76784;PMS7003;66893;44.316;0.092;2023-04-08T12:11:46;1.25;0.50;0.50
76784;PMS7003;66893;44.316;0.092;2023-04-08T12:14:11;1.00;1.00;1.00
76784;PMS7003;66893;44.316;0.092;2023-04-08T12:16:37;0.00;0.00;0.00
76784;PMS7003;66893;44.316;0.092;2023-04-08T12:19:02;0.75;0.75;0.00
76784;PMS7003;66893;44.316;0.092;2023-04-08T12:21:28;0.75;0.75;0.00
76784;PMS7003;66893;44.316;0.092;2023-04-08T12:23:53;0.25;0.25;0.25
76784;PMS7003;66893;44.316;0.092;2023-04-08T12:26:19;0.50;0.50;0.50
76784;PMS7003;66893;44.316;0.092;2023-04-08T12:28:44;0.25;0.25;0.25
76784;PMS7003;66893;44.316;0.092;2023-04-08T12:31:10;1.00;1.00;0.00
76784;PMS7003;66893;44.316;0.092;2023-04-08T12:33:36;0.75;0.00;0.00
76784;PMS7003;66893;44.316;0.092;2023-04-08T12:36:02;1.00;1.00;1.00
76784;PMS7003;66893;44.316;0.092;2023-04-08T12:38:27;0.00;0.00;0.00
76784;PMS7003;66893;44.316;0.092;2023-04-08T12:40:53;0.00;0.00;0.00
76784;PMS7003;66893;44.316;0.092;2023-04-08T12:43:20;1.00;1.00;1.00
76784;PMS7003;66893;44.316;0.092;2023-04-08T12:45:46;1.25;0.75;0.00
76784;PMS7003;66893;44.316;0.092;2023-04-08T12:48:12;0.00;0.00;0.00
76784;PMS7003;66893;44.316;0.092;2023-04-08T12:50:38;1.00;0.00;0.00
76784;PMS7003;66893;44.316;0.092;2023-04-08T12:53:03;0.00;0.00;0.00
76784;PMS7003;66893;44.316;0.092;2023-04-08T12:55:29;2.00;0.00;0.00
76784;PMS7003;66893;44.316;0.092;2023-04-08T12:57:54;0.00;0.00;0.00
76784;PMS7003;66893;44.316;0.092;2023-04-08T13:00:20;1.50;0.00;0.00
76784;PMS7003;66893;44.316;0.092;2023-04-08T13:02:46;0.00;0.00;0.00
76784;PMS7003;66893;44.316;0.092;2023-04-08T13:05:11;0.00;0.00;0.00
76784;PMS7003;66893;44.316;0.092;2023-04-08T13:07:37;0.00;0.00;0.00
76784;PMS7003;66893;44.316;0.092;2023-04-08T13:10:02;2.00;0.00;0.00
76784;PMS7003;66893;44.316;0.092;2023-04-08T13:12:30;0.00;0.00;0.00
76784;PMS7003;66893;44.316;0.092;2023-04-08T13:14:56;0.00;0.00;0.00
76784;PMS7003;66893;44.316;0.092;2023-04-08T13:17:22;0.00;0.00;0.00
76784;PMS7003;66893;44.316;0.092;2023-04-08T13:19:47;0.25;0.25;0.25
76784;PMS7003;66893;44.316;0.092;2023-04-08T13:22:14;0.00;0.00;0.00
76784;PMS7003;66893;44.316;0.092;2023-04-08T13:24:39;0.00;0.00;0.00
76784;PMS7003;66893;44.316;0.092;2023-04-08T13:27:05;1.00;1.00;0.00
76784;PMS7003;66893;44.316;0.092;2023-04-08T13:29:31;0.75;0.00;0.00
76784;PMS7003;66893;44.316;0.092;2023-04-08T13:31:56;0.00;0.00;0.00
76784;PMS7003;66893;44.316;0.092;2023-04-08T13:34:22;0.50;0.50;0.25
76784;PMS7003;66893;44.316;0.092;2023-04-08T13:36:47;0.25;0.25;0.25
76784;PMS7003;66893;44.316;0.092;2023-04-08T13:39:13;1.00;0.00;0.00
76784;PMS7003;66893;44.316;0.092;2023-04-08T13:41:38;0.00;0.00;0.00
76784;PMS7003;66893;44.316;0.092;2023-04-08T13:44:04;0.00;0.00;0.00
76784;PMS7003;66893;44.316;0.092;2023-04-08T13:46:29;2.00;0.00;0.00
76784;PMS7003;66893;44.316;0.092;2023-04-08T13:48:55;0.25;0.25;0.25
76784;PMS7003;66893;44.316;0.092;2023-04-08T13:51:20;0.25;0.00;0.00
76784;PMS7003;66893;44.316;0.092;2023-04-08T13:53:45;0.50;0.00;0.00
76784;PMS7003;66893;44.316;0.092;2023-04-08T13:56:11;0.50;0.50;0.00
76784;PMS7003;66893;44.316;0.092;2023-04-08T13:58:36;0.50;0.50;0.00
76784;PMS7003;66893;44.316;0.092;2023-04-08T14:01:02;0.00;0.00;0.00
76784;PMS7003;66893;44.316;0.092;2023-04-08T14:03:27;0.00;0.00;0.00
76784;PMS7003;66893;44.316;0.092;2023-04-08T14:05:53;2.00;1.00;0.25
76784;PMS7003;66893;44.316;0.092;2023-04-08T14:08:18;0.00;0.00;0.00
76784;PMS7003;66893;44.316;0.092;2023-04-08T14:10:50;0.00;0.00;0.00
76784;PMS7003;66893;44.316;0.092;2023-04-08T14:13:16;0.00;0.00;0.00
76784;PMS7003;66893;44.316;0.092;2023-04-08T14:15:41;0.00;0.00;0.00
76784;PMS7003;66893;44.316;0.092;2023-04-08T14:18:07;0.75;0.75;0.25
76784;PMS7003;66893;44.316;0.092;2023-04-08T14:20:32;0.00;0.00;0.00
76784;PMS7003;66893;44.316;0.092;2023-04-08T14:22:59;0.25;0.25;0.25
76784;PMS7003;66893;44.316;0.092;2023-04-08T14:25:25;0.00;0.00;0.00
76784;PMS7003;66893;44.316;0.092;2023-04-08T14:27:50;1.00;1.00;0.00
76784;PMS7003;66893;44.316;0.092;2023-04-08T14:30:16;1.50;0.00;0.00
76784;PMS7003;66893;44.316;0.092;2023-04-08T14:32:41;1.00;1.00;1.00